Time;durP1;ratioP1;P1;durP2;ratioP2;P2;SDS_P1;SDS_P2;PMS_P1;PMS_P2;Temp;Humidity;BMP_temperature;BMP_pressure;BME280_temperature;BME280_humidity;BME280_pressure;Samples;Min_cycle;Max_cycle;Signal;HPM_P1;HPM_P2
2024/03/21 00:02:18;;;;;;;19.87;12.93;;;12.20;1.00;;;;;;5052023;28;20265;-81
2024/03/21 00:04:45;;;;;;;17.77;12.90;;;12.10;1.00;;;;;;5056688;28;20199;-81
2024/03/21 00:07:12;;;;;;;18.57;12.87;;;12.00;1.00;;;;;;5056643;28;20211;-81
2024/03/21 00:09:39;;;;;;;19.10;12.73;;;12.00;1.00;;;;;;5056229;28;20199;-81
2024/03/21 00:12:06;;;;;;;20.47;12.13;;;12.00;99.90;;;;;;5057035;28;20257;-81
2024/03/21 00:14:33;;;;;;;18.23;12.97;;;11.90;99.90;;;;;;5049445;28;20209;-81
2024/03/21 00:17:00;;;;;;;20.83;13.00;;;11.90;1.00;;;;;;5070007;28;20249;-81
2024/03/21 00:19:27;;;;;;;18.70;12.67;;;12.00;1.00;;;;;;5056799;28;20203;-81
2024/03/21 00:21:53;;;;;;;20.60;13.43;;;11.90;1.00;;;;;;5057491;28;20231;-81
2024/03/21 00:24:21;;;;;;;19.60;13.13;;;11.90;1.00;;;;;;5055908;28;20195;-81
2024/03/21 00:26:47;;;;;;;18.33;12.15;;;11.90;1.00;;;;;;5056900;28;20294;-81
2024/03/21 00:29:14;;;;;;;19.60;12.30;;;11.90;1.00;;;;;;5050318;28;20199;-81
2024/03/21 00:31:40;;;;;;;19.38;12.30;;;11.80;1.00;;;;;;5048503;28;20231;-81
2024/03/21 00:34:10;;;;;;;17.30;12.43;;;11.80;99.80;;;;;;5055595;28;20195;-81
2024/03/21 00:36:36;;;;;;;20.00;12.43;;;11.80;72.10;;;;;;5062928;28;20229;-81
2024/03/21 00:39:03;;;;;;;18.67;12.20;;;11.70;99.90;;;;;;5055287;28;20282;-81
2024/03/21 00:41:29;;;;;;;20.57;13.00;;;11.80;99.90;;;;;;5056675;28;20261;-81
2024/03/21 00:43:56;;;;;;;18.77;11.83;;;11.90;99.90;;;;;;5055879;28;20207;-81
2024/03/21 00:46:23;;;;;;;19.47;12.73;;;11.90;1.00;;;;;;5054821;28;20195;-81
2024/03/21 00:48:50;;;;;;;17.27;11.83;;;11.90;1.00;;;;;;5057252;28;20194;-81
2024/03/21 00:51:17;;;;;;;19.70;12.77;;;11.90;1.00;;;;;;5051138;28;20249;-81
2024/03/21 00:53:44;;;;;;;19.43;12.30;;;11.70;61.70;;;;;;5048493;28;20202;-81
2024/03/21 00:56:11;;;;;;;19.57;12.17;;;11.60;99.90;;;;;;5055549;28;20199;-81
2024/03/21 00:58:38;;;;;;;17.07;12.67;;;11.70;99.90;;;;;;5058969;28;20563;-81
2024/03/21 01:01:04;;;;;;;19.73;11.97;;;11.70;99.90;;;;;;5054664;28;20208;-81
2024/03/21 01:03:31;;;;;;;20.77;13.20;;;11.70;1.00;;;;;;5055263;28;20215;-81
2024/03/21 01:05:57;;;;;;;20.67;12.43;;;11.70;99.90;;;;;;5059640;28;20223;-81
2024/03/21 01:08:25;;;;;;;21.50;13.73;;;11.80;99.90;;;;;;5060112;28;20191;-81
2024/03/21 01:10:52;;;;;;;21.67;12.93;;;11.70;99.90;;;;;;5053993;28;20203;-81
2024/03/21 01:13:20;;;;;;;20.00;12.47;;;11.70;99.90;;;;;;5061591;28;20221;-81
2024/03/21 01:15:46;;;;;;;19.47;12.17;;;11.70;12.90;;;;;;5047797;28;20203;-81
2024/03/21 01:18:13;;;;;;;20.60;12.53;;;11.70;1.00;;;;;;5054735;28;20229;-81
2024/03/21 01:20:40;;;;;;;18.93;12.07;;;11.70;1.00;;;;;;5053249;28;20206;-81
2024/03/21 01:23:07;;;;;;;19.23;12.13;;;11.60;1.00;;;;;;5053577;28;20238;-81
2024/03/21 01:25:36;;;;;;;19.13;12.20;;;11.60;1.00;;;;;;5055102;28;20233;-81
2024/03/21 01:28:02;;;;;;;22.23;12.73;;;11.30;1.00;;;;;;5060762;28;20866;-81
2024/03/21 01:30:34;;;;;;;18.50;11.43;;;11.30;1.00;;;;;;5055895;28;20191;-81
2024/03/21 01:33:00;;;;;;;17.63;11.47;;;11.30;1.00;;;;;;5050850;28;20241;-81
2024/03/21 01:35:28;;;;;;;20.67;11.97;;;11.40;1.00;;;;;;5057086;28;20590;-81
2024/03/21 01:37:55;;;;;;;17.80;11.10;;;11.40;1.00;;;;;;5052775;28;20219;-81
2024/03/21 01:40:22;;;;;;;17.47;11.27;;;11.40;1.00;;;;;;5054977;28;20238;-81
2024/03/21 01:42:50;;;;;;;16.90;11.07;;;11.50;1.00;;;;;;5053186;28;20657;-81
2024/03/21 01:45:17;;;;;;;19.23;11.67;;;11.50;1.00;;;;;;5056541;28;20230;-81
2024/03/21 01:47:44;;;;;;;19.07;11.97;;;11.40;1.00;;;;;;5056235;28;20218;-81
2024/03/21 01:50:11;;;;;;;18.53;11.10;;;11.30;1.00;;;;;;5058439;28;20191;-81
2024/03/21 01:52:38;;;;;;;20.50;12.27;;;11.20;1.00;;;;;;5062086;28;20750;-80
2024/03/21 01:55:06;;;;;;;21.30;12.50;;;11.20;1.00;;;;;;5061732;28;20207;-81
2024/03/21 01:57:32;;;;;;;17.27;11.40;;;11.20;28.70;;;;;;5056188;28;20242;-81
2024/03/21 02:00:00;;;;;;;18.13;12.50;;;11.20;99.90;;;;;;5056972;28;20210;-81
2024/03/21 02:02:26;;;;;;;20.13;11.60;;;11.30;99.90;;;;;;5054783;28;20219;-81
2024/03/21 02:04:53;;;;;;;16.73;11.70;;;11.30;99.90;;;;;;5061632;28;20241;-81
2024/03/21 02:07:19;;;;;;;16.87;12.00;;;11.30;19.20;;;;;;5055955;28;20230;-81
2024/03/21 02:09:49;;;;;;;20.50;12.63;;;11.40;1.00;;;;;;5057788;28;20574;-80
2024/03/21 02:12:42;;;;;;;19.60;12.00;;;11.30;1.00;;;;;;5061983;28;20742;-81
2024/03/21 02:15:12;;;;;;;18.80;11.93;;;11.30;1.00;;;;;;5059959;28;20282;-81
2024/03/21 02:17:38;;;;;;;20.47;12.60;;;11.30;1.00;;;;;;5060296;28;20219;-81
2024/03/21 02:20:06;;;;;;;16.70;11.83;;;11.40;1.00;;;;;;5062157;28;20195;-81
2024/03/21 02:22:36;;;;;;;18.00;11.50;;;11.30;1.00;;;;;;5056887;28;20238;-81
2024/03/21 02:25:04;;;;;;;18.50;11.77;;;11.40;1.00;;;;;;5062401;28;20297;-81
2024/03/21 02:27:30;;;;;;;20.87;11.80;;;11.30;1.00;;;;;;5056517;28;20635;-81
2024/03/21 02:29:57;;;;;;;19.17;11.47;;;11.40;1.00;;;;;;5063146;28;20210;-81
2024/03/21 02:32:23;;;;;;;19.57;12.37;;;11.40;1.00;;;;;;5051616;28;20239;-81
2024/03/21 02:34:50;;;;;;;19.30;12.37;;;11.40;1.00;;;;;;5060189;28;20198;-81
2024/03/21 02:37:16;;;;;;;18.20;12.43;;;11.40;1.00;;;;;;5066941;28;20242;-81
2024/03/21 02:39:46;;;;;;;18.53;11.70;;;11.50;99.90;;;;;;5057283;28;20654;-81
2024/03/21 02:42:12;;;;;;;17.80;11.50;;;11.50;99.90;;;;;;5047966;28;20264;-81
2024/03/21 02:44:39;;;;;;;17.57;11.73;;;11.50;98.20;;;;;;5057051;28;20650;-80
2024/03/21 02:47:05;;;;;;;18.97;11.97;;;11.50;96.50;;;;;;5052740;28;20254;-81
2024/03/21 02:49:32;;;;;;;16.23;10.93;;;11.50;99.90;;;;;;5051419;28;20199;-81
2024/03/21 02:51:58;;;;;;;17.17;11.20;;;11.50;99.90;;;;;;5055375;28;20246;-81
2024/03/21 02:54:25;;;;;;;17.10;11.73;;;11.50;99.90;;;;;;5056524;28;20665;-80
2024/03/21 02:56:53;;;;;;;18.20;11.47;;;11.40;99.90;;;;;;5055980;28;20199;-80
2024/03/21 02:59:20;;;;;;;18.97;11.30;;;11.40;99.90;;;;;;5056485;28;20207;-81
2024/03/21 03:01:46;;;;;;;15.87;10.30;;;11.40;1.00;;;;;;5058706;28;20273;-81
2024/03/21 03:04:12;;;;;;;16.10;11.07;;;11.50;1.00;;;;;;5058332;28;20198;-81
2024/03/21 03:06:38;;;;;;;19.30;11.30;;;11.50;1.00;;;;;;5058821;28;20199;-81
2024/03/21 03:09:06;;;;;;;17.77;11.77;;;11.50;1.00;;;;;;5055757;28;20191;-81
2024/03/21 03:11:31;;;;;;;17.73;11.37;;;11.50;1.00;;;;;;5048748;28;20606;-81
2024/03/21 03:14:00;;;;;;;19.30;10.63;;;11.50;99.90;;;;;;5060243;28;20282;-81
2024/03/21 03:16:26;;;;;;;19.63;11.23;;;11.40;1.00;;;;;;5049474;28;20284;-81
2024/03/21 03:18:52;;;;;;;17.30;11.37;;;11.30;1.00;;;;;;5058660;28;20231;-81
2024/03/21 03:21:18;;;;;;;19.47;12.13;;;11.30;1.00;;;;;;5054835;28;20697;-81
2024/03/21 03:23:45;;;;;;;17.17;11.13;;;11.30;1.00;;;;;;5053688;28;20195;-81
2024/03/21 03:26:11;;;;;;;17.67;11.43;;;11.20;1.00;;;;;;5056837;28;20616;-81
2024/03/21 03:28:38;;;;;;;17.53;11.10;;;11.20;2.10;;;;;;5055292;28;20195;-81
2024/03/21 03:31:06;;;;;;;16.53;11.40;;;11.20;98.20;;;;;;5055886;28;20231;-81
2024/03/21 03:36:18;;;;;;;18.30;11.20;;;11.20;99.90;;;;;;5056140;28;20681;-81
2024/03/21 03:38:45;;;;;;;17.17;11.67;;;11.10;99.90;;;;;;5062421;28;20250;-81
2024/03/21 03:41:13;;;;;;;16.97;11.37;;;11.10;99.90;;;;;;5057750;28;20203;-81
2024/03/21 03:43:40;;;;;;;18.10;11.40;;;11.20;99.90;;;;;;5052254;28;20223;-81
2024/03/21 03:46:08;;;;;;;19.93;12.13;;;11.10;99.90;;;;;;5055217;28;20199;-81
2024/03/21 03:48:34;;;;;;;16.80;11.17;;;11.20;1.00;;;;;;5053737;28;20195;-81
2024/03/21 03:51:01;;;;;;;18.33;11.27;;;11.30;1.00;;;;;;5054088;28;20190;-81
2024/03/21 03:53:27;;;;;;;17.40;11.33;;;11.40;99.90;;;;;;5055502;28;20257;-81
2024/03/21 03:55:53;;;;;;;18.07;11.87;;;11.40;99.90;;;;;;5054341;28;20199;-81
2024/03/21 03:58:21;;;;;;;17.90;11.40;;;11.50;1.00;;;;;;5050867;28;20247;-81
2024/03/21 04:00:55;;;;;;;17.13;11.47;;;11.50;1.00;;;;;;5050624;28;20553;-81
2024/03/21 04:03:23;;;;;;;17.70;11.40;;;11.50;1.00;;;;;;5057656;28;20258;-81
2024/03/21 04:05:55;;;;;;;18.43;11.50;;;11.40;1.00;;;;;;5060729;28;20206;-81
2024/03/21 04:08:22;;;;;;;17.53;11.23;;;11.40;1.00;;;;;;5054729;28;20199;-81
2024/03/21 04:10:48;;;;;;;19.10;12.60;;;11.40;1.00;;;;;;5052995;28;20211;-81
2024/03/21 04:13:15;;;;;;;17.90;12.23;;;11.40;1.00;;;;;;5052211;28;20302;-81
2024/03/21 04:15:42;;;;;;;19.87;13.00;;;11.40;1.00;;;;;;5052190;28;20214;-81
2024/03/21 04:18:09;;;;;;;19.37;12.77;;;11.40;99.90;;;;;;5053927;28;20219;-80
2024/03/21 04:20:36;;;;;;;17.20;12.20;;;11.50;1.00;;;;;;5046598;28;20228;-82
2024/03/21 04:23:03;;;;;;;29.07;21.27;;;11.60;1.00;;;;;;5050991;28;20322;-81
2024/03/21 04:25:30;;;;;;;21.07;14.27;;;11.60;1.00;;;;;;5055637;28;20687;-81
2024/03/21 04:27:57;;;;;;;17.77;12.60;;;11.60;1.00;;;;;;5046331;28;20195;-81
2024/03/21 04:30:23;;;;;;;21.57;13.37;;;11.60;1.00;;;;;;5054106;28;20290;-80
2024/03/21 04:32:50;;;;;;;20.27;12.10;;;11.70;1.00;;;;;;5057624;28;20326;-81
2024/03/21 04:35:16;;;;;;;18.90;12.97;;;11.60;1.00;;;;;;5059107;28;20264;-81
2024/03/21 04:37:45;;;;;;;19.57;12.87;;;11.60;1.00;;;;;;5064943;28;20253;-81
2024/03/21 04:40:12;;;;;;;20.70;13.37;;;11.50;1.00;;;;;;5057239;28;20202;-81
2024/03/21 04:42:39;;;;;;;21.83;14.10;;;11.50;1.00;;;;;;5063987;28;20218;-81
2024/03/21 04:45:07;;;;;;;21.30;15.17;;;11.50;99.90;;;;;;5053386;28;20203;-81
2024/03/21 04:47:34;;;;;;;22.33;14.53;;;11.50;99.90;;;;;;5057459;28;20199;-80
2024/03/21 04:50:01;;;;;;;20.00;14.37;;;11.50;1.00;;;;;;5041351;28;20842;-80
2024/03/21 04:52:28;;;;;;;20.03;14.17;;;11.50;1.00;;;;;;5060189;28;20265;-80
2024/03/21 04:54:55;;;;;;;23.53;15.23;;;11.40;1.00;;;;;;5058178;28;20210;-80
2024/03/21 04:57:22;;;;;;;23.47;14.90;;;11.40;99.90;;;;;;5051788;28;20207;-80
2024/03/21 04:59:48;;;;;;;26.17;15.37;;;11.30;1.00;;;;;;5060989;28;20278;-80
2024/03/21 05:02:15;;;;;;;23.23;16.00;;;11.30;1.00;;;;;;5060875;28;20337;-80
2024/03/21 05:04:41;;;;;;;22.40;15.33;;;11.20;1.00;;;;;;5066341;28;20206;-80
2024/03/21 05:07:08;;;;;;;24.83;16.20;;;11.30;1.00;;;;;;5060763;28;20263;-80
2024/03/21 05:09:34;;;;;;;22.03;15.70;;;11.30;41.80;;;;;;5065392;28;20282;-80
2024/03/21 05:12:02;;;;;;;25.13;16.37;;;11.10;1.00;;;;;;5062768;28;20229;-80
2024/03/21 05:14:33;;;;;;;25.53;17.17;;;11.00;1.00;;;;;;5066917;28;20231;-80
2024/03/21 05:17:00;;;;;;;23.73;17.20;;;11.00;99.90;;;;;;5064565;28;20541;-80
2024/03/21 05:19:26;;;;;;;24.80;15.73;;;10.90;99.90;;;;;;5050298;28;20241;-80
2024/03/21 05:21:53;;;;;;;24.97;17.00;;;10.90;99.90;;;;;;5053649;28;20235;-80
2024/03/21 05:24:19;;;;;;;25.87;18.13;;;10.80;99.90;;;;;;5050613;28;20493;-80
2024/03/21 05:26:46;;;;;;;25.57;18.27;;;10.90;99.90;;;;;;5048475;28;20203;-80
2024/03/21 05:29:13;;;;;;;27.50;18.83;;;10.80;99.90;;;;;;5058055;28;20207;-80
2024/03/21 05:31:41;;;;;;;26.87;17.57;;;10.80;99.90;;;;;;5053465;28;20611;-80
2024/03/21 05:34:07;;;;;;;28.07;19.93;;;10.80;99.90;;;;;;5056919;28;20204;-80
2024/03/21 05:36:34;;;;;;;32.03;21.33;;;10.70;99.90;;;;;;5057927;28;20233;-80
2024/03/21 05:39:00;;;;;;;29.40;20.80;;;10.70;99.90;;;;;;5060176;28;20215;-80
2024/03/21 05:41:27;;;;;;;29.07;21.83;;;10.80;99.90;;;;;;5067292;28;20215;-80
2024/03/21 05:43:53;;;;;;;31.53;22.23;;;10.80;99.90;;;;;;5057553;28;20230;-80
2024/03/21 05:46:26;;;;;;;31.90;21.50;;;10.80;99.90;;;;;;5065630;28;20750;-80
2024/03/21 05:48:53;;;;;;;31.90;22.13;;;10.80;99.90;;;;;;5062781;28;20203;-80
2024/03/21 05:51:20;;;;;;;31.07;20.33;;;10.80;99.90;;;;;;5063594;28;20221;-80
2024/03/21 05:53:46;;;;;;;30.03;21.17;;;10.80;99.90;;;;;;5062779;28;20347;-80
2024/03/21 05:56:15;;;;;;;31.90;20.80;;;10.80;99.90;;;;;;5060370;28;20245;-80
2024/03/21 05:58:41;;;;;;;32.93;22.17;;;10.90;99.90;;;;;;5064934;28;20672;-80
2024/03/21 06:01:22;;;;;;;33.10;22.47;;;10.90;99.90;;;;;;5056882;28;20207;-80
2024/03/21 06:03:50;;;;;;;31.63;22.53;;;11.00;99.90;;;;;;5060878;28;20297;-80
2024/03/21 06:06:17;;;;;;;30.03;20.37;;;11.00;99.90;;;;;;5063281;28;20210;-80
2024/03/21 06:08:43;;;;;;;30.60;21.03;;;10.80;99.90;;;;;;5071151;28;20237;-80
2024/03/21 06:11:10;;;;;;;28.83;20.73;;;10.80;99.90;;;;;;5064046;28;20278;-80
2024/03/21 06:13:36;;;;;;;33.07;22.33;;;10.70;99.90;;;;;;5059452;28;20198;-78
2024/03/21 06:16:03;;;;;;;29.70;21.70;;;10.80;99.90;;;;;;5057789;28;20203;-81
2024/03/21 06:18:29;;;;;;;31.10;22.17;;;10.80;99.90;;;;;;5059622;28;20347;-82
2024/03/21 06:20:57;;;;;;;36.30;22.33;;;10.80;99.90;;;;;;5053216;28;20195;-80
2024/03/21 06:23:23;;;;;;;32.03;21.57;;;10.80;99.90;;;;;;5056156;28;20298;-80
2024/03/21 06:25:50;;;;;;;29.23;21.27;;;10.90;99.90;;;;;;5048900;28;20286;-80
2024/03/21 06:28:16;;;;;;;31.10;22.97;;;10.90;99.90;;;;;;5050624;28;20199;-80
2024/03/21 06:30:43;;;;;;;31.43;21.50;;;10.80;99.90;;;;;;5053258;28;20203;-80
2024/03/21 06:33:09;;;;;;;30.07;21.53;;;10.90;99.90;;;;;;5053182;28;20216;-80
2024/03/21 06:35:36;;;;;;;31.50;21.50;;;10.90;99.90;;;;;;5056497;28;20542;-80
2024/03/21 06:38:04;;;;;;;30.73;21.70;;;10.80;99.90;;;;;;5055911;28;20243;-80
2024/03/21 06:40:32;;;;;;;29.37;20.57;;;10.90;99.90;;;;;;5062141;28;20199;-80
2024/03/21 06:42:58;;;;;;;30.57;20.10;;;10.90;99.90;;;;;;5053088;28;20278;-80
2024/03/21 06:45:25;;;;;;;30.63;22.33;;;10.90;99.90;;;;;;5060080;28;20657;-80
2024/03/21 06:47:52;;;;;;;31.87;22.53;;;10.80;99.90;;;;;;5062975;28;20612;-80
2024/03/21 06:50:20;;;;;;;33.13;23.27;;;10.90;99.90;;;;;;5062491;28;20666;-80
2024/03/21 06:52:47;;;;;;;29.83;22.07;;;10.80;99.90;;;;;;5061500;28;20261;-81
2024/03/21 06:55:15;;;;;;;31.07;21.63;;;10.90;99.90;;;;;;5067876;28;20198;-80
2024/03/21 06:57:42;;;;;;;32.23;22.67;;;10.90;99.90;;;;;;5058900;28;20260;-81
2024/03/21 07:00:12;;;;;;;33.90;23.47;;;10.90;99.90;;;;;;5061732;28;20237;-81
2024/03/21 07:02:38;;;;;;;33.43;23.40;;;11.00;99.90;;;;;;5057540;28;20586;-80
2024/03/21 07:05:06;;;;;;;33.07;23.50;;;11.00;99.90;;;;;;5047367;28;20273;-80
2024/03/21 07:07:32;;;;;;;32.60;21.87;;;11.00;99.90;;;;;;5056831;28;20614;-80
2024/03/21 07:09:59;;;;;;;32.87;23.80;;;11.00;99.90;;;;;;5069510;28;20202;-81
2024/03/21 07:12:26;;;;;;;35.03;22.67;;;11.20;99.90;;;;;;5069219;28;20705;-80
2024/03/21 07:14:53;;;;;;;31.07;21.43;;;11.10;99.90;;;;;;5064713;28;20672;-80
2024/03/21 07:17:19;;;;;;;31.07;20.67;;;11.20;99.90;;;;;;5055433;28;20264;-80
2024/03/21 07:19:46;;;;;;;28.73;20.27;;;11.20;99.90;;;;;;5054313;28;20736;-80
2024/03/21 07:22:12;;;;;;;28.67;20.00;;;11.30;99.90;;;;;;5050155;28;20702;-80
2024/03/21 07:24:39;;;;;;;27.30;19.17;;;11.30;99.90;;;;;;5045416;28;20253;-81
2024/03/21 07:27:05;;;;;;;27.23;18.77;;;11.40;99.90;;;;;;5047692;28;20639;-80
2024/03/21 07:29:34;;;;;;;26.50;18.10;;;11.50;99.90;;;;;;5049094;28;20234;-80
2024/03/21 07:32:04;;;;;;;27.70;18.70;;;11.50;99.90;;;;;;5048411;28;20273;-80
2024/03/21 07:34:31;;;;;;;27.30;17.77;;;11.60;99.90;;;;;;5054656;28;20278;-80
2024/03/21 07:36:57;;;;;;;25.10;16.43;;;11.70;99.90;;;;;;5051305;28;20254;-81
2024/03/21 07:39:24;;;;;;;23.90;16.17;;;11.70;99.90;;;;;;5056190;28;20222;-80
2024/03/21 07:41:50;;;;;;;26.17;17.27;;;11.70;99.90;;;;;;5055209;28;20245;-80
2024/03/21 07:44:17;;;;;;;26.20;17.17;;;11.80;99.90;;;;;;5062348;28;20202;-80
2024/03/21 07:46:45;;;;;;;26.33;14.97;;;11.80;99.90;;;;;;5058438;28;20207;-80
2024/03/21 07:49:12;;;;;;;23.57;14.40;;;11.80;99.90;;;;;;5060213;28;20192;-80
2024/03/21 07:51:38;;;;;;;21.33;13.80;;;11.80;99.90;;;;;;5060771;28;20300;-80
2024/03/21 07:54:06;;;;;;;21.90;12.33;;;11.80;99.90;;;;;;5056995;28;20715;-80
2024/03/21 07:56:32;;;;;;;19.07;12.20;;;11.80;99.90;;;;;;5064495;28;20290;-80
2024/03/21 07:58:59;;;;;;;17.63;11.60;;;11.70;99.90;;;;;;5065862;28;20267;-80
2024/03/21 08:01:25;;;;;;;15.03;9.37;;;11.70;99.90;;;;;;5062670;28;20218;-80
2024/03/21 08:03:54;;;;;;;15.10;9.13;;;11.50;99.90;;;;;;5061031;28;20195;-80
2024/03/21 08:06:20;;;;;;;13.73;8.63;;;11.40;99.90;;;;;;5067334;28;20233;-81
2024/03/21 08:08:47;;;;;;;11.70;7.53;;;11.40;95.00;;;;;;5058435;28;20251;-80
2024/03/21 08:11:14;;;;;;;13.10;7.97;;;11.30;1.00;;;;;;5066099;28;20288;-80
2024/03/21 08:13:40;;;;;;;11.37;7.07;;;11.20;1.00;;;;;;5056646;28;20199;-80
2024/03/21 08:16:08;;;;;;;11.67;7.37;;;11.20;1.00;;;;;;5052498;28;20241;-79
2024/03/21 08:18:34;;;;;;;8.83;6.17;;;11.20;1.00;;;;;;5052951;28;20260;-79
2024/03/21 08:21:03;;;;;;;9.80;7.13;;;11.30;1.00;;;;;;5065651;28;20579;-80
2024/03/21 08:23:30;;;;;;;10.77;6.80;;;11.40;1.00;;;;;;5048609;28;20218;-79
2024/03/21 08:26:02;;;;;;;9.40;6.10;;;11.40;87.50;;;;;;5049436;28;20262;-80
2024/03/21 08:28:28;;;;;;;9.23;5.60;;;11.40;1.00;;;;;;5050691;28;20296;-80
2024/03/21 08:30:55;;;;;;;10.37;5.90;;;11.50;99.90;;;;;;5048116;28;20222;-80
2024/03/21 08:33:21;;;;;;;8.37;5.73;;;11.50;99.90;;;;;;5059462;28;20658;-80
2024/03/21 08:35:48;;;;;;;8.23;5.90;;;11.50;1.00;;;;;;5052852;28;20210;-80
2024/03/21 08:38:15;;;;;;;9.03;6.30;;;11.60;1.00;;;;;;5057517;28;20255;-80
2024/03/21 08:40:49;;;;;;;11.67;7.40;;;11.50;1.00;;;;;;5050162;28;20194;-80
2024/03/21 08:43:15;;;;;;;16.27;8.20;;;11.00;1.00;;;;;;5049320;28;20742;-81
2024/03/21 08:45:44;;;;;;;13.17;8.83;;;10.70;1.00;;;;;;5061864;28;20202;-81
2024/03/21 08:48:11;;;;;;;11.30;7.43;;;10.50;1.00;;;;;;5051150;28;20223;-80
2024/03/21 08:50:38;;;;;;;12.20;7.90;;;10.40;1.00;;;;;;5060405;28;20572;-79
2024/03/21 08:53:04;;;;;;;14.10;7.63;;;10.40;1.00;;;;;;5056517;28;20277;-80
2024/03/21 08:55:33;;;;;;;13.30;7.60;;;10.40;99.90;;;;;;5068154;28;20657;-80
2024/03/21 08:57:59;;;;;;;13.87;7.77;;;10.40;10.90;;;;;;5063389;28;20233;-80
2024/03/21 09:00:26;;;;;;;13.67;8.43;;;10.50;1.00;;;;;;5065899;28;20246;-80
2024/03/21 09:02:52;;;;;;;14.87;9.00;;;10.30;99.90;;;;;;5067069;28;20249;-80
2024/03/21 09:05:19;;;;;;;18.30;10.10;;;10.10;61.80;;;;;;5053064;28;20686;-80
2024/03/21 09:07:46;;;;;;;17.57;9.67;;;10.00;1.00;;;;;;5057882;28;20207;-80
2024/03/21 09:10:13;;;;;;;19.97;10.80;;;9.90;1.00;;;;;;5069494;28;20198;-80
2024/03/21 09:12:42;;;;;;;17.83;10.20;;;9.90;99.90;;;;;;5061654;28;20246;-79
2024/03/21 09:15:11;;;;;;;16.00;9.80;;;9.90;80.30;;;;;;5039488;28;20199;-80
2024/03/21 09:17:37;;;;;;;17.33;10.07;;;9.90;99.90;;;;;;5061127;28;20214;-79
2024/03/21 09:20:05;;;;;;;19.07;10.27;;;9.90;99.90;;;;;;5068869;28;20222;-80
2024/03/21 09:22:32;;;;;;;16.80;10.93;;;9.90;99.90;;;;;;5037784;28;20237;-80
2024/03/21 09:24:59;;;;;;;18.30;10.87;;;9.80;99.90;;;;;;5050504;28;20289;-80
2024/03/21 09:27:25;;;;;;;16.97;10.13;;;9.70;1.00;;;;;;5049130;28;20202;-80
2024/03/21 09:29:53;;;;;;;14.20;8.67;;;9.70;99.90;;;;;;5040896;28;20198;-80
2024/03/21 09:32:19;;;;;;;16.27;9.00;;;9.60;36.90;;;;;;5049408;28;20233;-80
2024/03/21 09:34:49;;;;;;;13.70;8.53;;;9.60;1.00;;;;;;5048241;28;20205;-80
2024/03/21 09:37:16;;;;;;;17.27;8.73;;;9.50;1.00;;;;;;5048034;28;20204;-80
2024/03/21 09:39:43;;;;;;;13.10;7.73;;;9.60;99.90;;;;;;5048655;28;20235;-80
2024/03/21 09:42:15;;;;;;;13.87;7.13;;;9.50;99.90;;;;;;5055684;28;20681;-80
2024/03/21 09:44:44;;;;;;;10.63;5.60;;;9.50;1.00;;;;;;5052019;28;20628;-81
2024/03/21 09:47:13;;;;;;;10.17;5.60;;;9.40;1.00;;;;;;5049909;28;20207;-80
2024/03/21 09:49:40;;;;;;;9.20;5.37;;;9.40;1.00;;;;;;5053952;28;20199;-80
2024/03/21 09:52:08;;;;;;;8.93;4.77;;;9.50;1.00;;;;;;5050612;28;20215;-80
2024/03/21 09:54:35;;;;;;;7.73;4.40;;;9.40;99.90;;;;;;5054656;28;20199;-80
2024/03/21 09:57:01;;;;;;;7.30;4.63;;;9.50;99.90;;;;;;5060944;28;20272;-81
2024/03/21 09:59:28;;;;;;;7.73;4.47;;;9.60;1.00;;;;;;5053685;28;20212;-80
2024/03/21 10:01:54;;;;;;;7.87;3.97;;;9.80;35.70;;;;;;5058171;28;20697;-80
2024/03/21 10:04:23;;;;;;;9.37;5.13;;;9.80;1.00;;;;;;5059625;28;20203;-80
2024/03/21 10:06:49;;;;;;;9.17;5.33;;;9.80;1.00;;;;;;5068301;28;20206;-80
2024/03/21 10:09:16;;;;;;;11.23;5.90;;;9.70;99.90;;;;;;5060483;28;20210;-81
2024/03/21 10:11:42;;;;;;;8.73;5.63;;;9.70;99.90;;;;;;5072750;28;20293;-80
2024/03/21 10:14:12;;;;;;;12.03;5.53;;;9.70;99.90;;;;;;5073329;28;20240;-80
2024/03/21 10:16:39;;;;;;;9.77;5.73;;;9.70;1.00;;;;;;5053346;28;20225;-82
2024/03/21 10:19:07;;;;;;;9.50;4.77;;;9.70;99.90;;;;;;5061586;28;20325;-80
2024/03/21 10:21:35;;;;;;;10.80;5.13;;;9.60;99.90;;;;;;5039468;28;20266;-80
2024/03/21 10:24:02;;;;;;;9.53;4.60;;;9.50;1.00;;;;;;5052766;28;20208;-81
2024/03/21 10:26:29;;;;;;;8.10;4.57;;;9.60;99.90;;;;;;5048012;28;20210;-80
2024/03/21 10:28:56;;;;;;;9.93;5.10;;;9.60;26.10;;;;;;5041106;28;20200;-80
2024/03/21 10:31:23;;;;;;;9.97;4.60;;;9.50;39.10;;;;;;5048848;28;20657;-80
2024/03/21 10:33:54;;;;;;;6.27;3.77;;;9.50;46.50;;;;;;5046775;28;20252;-80
2024/03/21 10:36:20;;;;;;;9.10;4.20;;;9.60;1.00;;;;;;5056205;28;20249;-80
2024/03/21 10:38:49;;;;;;;10.43;4.43;;;9.70;1.00;;;;;;5051387;28;20222;-80
2024/03/21 10:41:21;;;;;;;10.97;3.90;;;9.60;1.00;;;;;;5053573;28;20243;-80
2024/03/21 10:43:54;;;;;;;9.90;4.37;;;9.70;1.00;;;;;;5053881;28;20241;-80
2024/03/21 10:46:23;;;;;;;6.00;3.90;;;9.60;1.00;;;;;;5058775;28;20203;-80
2024/03/21 10:48:50;;;;;;;7.47;3.93;;;9.60;1.00;;;;;;5064769;28;20244;-80
2024/03/21 10:51:19;;;;;;;13.70;4.93;;;9.70;1.00;;;;;;5054119;28;20247;-80
2024/03/21 10:53:58;;;;;;;7.67;4.27;;;9.80;1.00;;;;;;5064674;28;20293;-80
2024/03/21 10:56:25;;;;;;;8.20;3.83;;;9.70;1.00;;;;;;5057761;28;20227;-79
2024/03/21 10:58:57;;;;;;;11.20;4.43;;;9.70;1.00;;;;;;5067366;28;20218;-80
2024/03/21 11:01:34;;;;;;;11.83;4.77;;;9.70;1.00;;;;;;5063566;28;20242;-80
2024/03/21 11:04:05;;;;;;;12.60;4.30;;;9.70;1.00;;;;;;5062571;28;20224;-80
2024/03/21 11:06:32;;;;;;;7.67;4.03;;;9.60;1.00;;;;;;5061038;28;20206;-80
2024/03/21 11:09:02;;;;;;;6.47;4.00;;;9.80;1.00;;;;;;5066114;28;20191;-80
2024/03/21 11:11:29;;;;;;;12.77;4.53;;;9.80;1.00;;;;;;5067422;28;20291;-80
2024/03/21 11:14:00;;;;;;;11.33;5.20;;;9.80;1.00;;;;;;5071021;28;20194;-81
2024/03/21 11:16:26;;;;;;;8.83;4.20;;;9.80;99.90;;;;;;5056667;28;21067;-79
2024/03/21 11:18:54;;;;;;;9.87;4.43;;;9.80;99.90;;;;;;5061032;28;20215;-79
2024/03/21 11:21:19;;;;;;;11.97;4.63;;;9.80;99.90;;;;;;5053977;28;20237;-79
2024/03/21 11:23:47;;;;;;;9.87;4.27;;;9.90;99.90;;;;;;5051777;28;20295;-79
2024/03/21 11:26:17;;;;;;;9.10;4.23;;;10.00;99.90;;;;;;5039617;28;20196;-79
2024/03/21 11:28:45;;;;;;;8.67;4.03;;;10.00;99.90;;;;;;5039518;28;20199;-79
2024/03/21 11:31:18;;;;;;;8.20;4.10;;;10.00;99.90;;;;;;5040185;28;20290;-79
2024/03/21 11:33:45;;;;;;;9.30;4.57;;;10.10;99.90;;;;;;5054683;28;20675;-78
2024/03/21 11:36:11;;;;;;;13.07;4.70;;;10.10;99.90;;;;;;5043585;28;20249;-79
2024/03/21 11:38:38;;;;;;;10.07;5.00;;;10.00;99.90;;;;;;5049541;28;20684;-79
2024/03/21 11:41:05;;;;;;;8.37;4.20;;;10.10;99.90;;;;;;5043974;28;20250;-79
2024/03/21 11:43:36;;;;;;;7.13;4.43;;;10.10;99.90;;;;;;5060600;28;20635;-79
2024/03/21 11:46:03;;;;;;;8.43;4.20;;;10.20;99.90;;;;;;5051583;28;20581;-79
2024/03/21 11:48:30;;;;;;;8.83;4.80;;;10.20;99.90;;;;;;5055617;28;20200;-79
2024/03/21 11:50:57;;;;;;;7.77;4.43;;;10.30;99.90;;;;;;5051329;28;20205;-79
2024/03/21 11:53:23;;;;;;;9.70;4.43;;;10.40;99.90;;;;;;5061256;28;20199;-79
2024/03/21 11:55:50;;;;;;;11.60;4.80;;;10.30;67.70;;;;;;5062363;28;20203;-79
2024/03/21 11:58:15;;;;;;;9.90;4.60;;;10.40;1.00;;;;;;5050659;28;20208;-78
2024/03/21 12:00:44;;;;;;;9.13;4.63;;;10.30;1.00;;;;;;5061828;28;20226;-79
2024/03/21 12:03:11;;;;;;;8.20;4.57;;;10.30;1.00;;;;;;5059109;28;20246;-79
2024/03/21 12:05:38;;;;;;;7.83;4.07;;;10.30;1.00;;;;;;5060423;28;20254;-79
2024/03/21 12:08:04;;;;;;;6.10;3.80;;;10.20;1.00;;;;;;5059507;28;20202;-79
2024/03/21 12:10:31;;;;;;;9.53;3.53;;;10.20;1.00;;;;;;5055997;28;20203;-78
2024/03/21 12:12:57;;;;;;;12.00;4.00;;;10.30;1.00;;;;;;5044354;28;20261;-78
2024/03/21 12:15:24;;;;;;;8.37;4.13;;;10.30;1.00;;;;;;5036443;28;20231;-79
2024/03/21 12:17:51;;;;;;;10.67;4.27;;;10.40;1.00;;;;;;5041821;28;20211;-78
2024/03/21 12:20:18;;;;;;;8.80;4.23;;;10.50;1.00;;;;;;5051403;28;20211;-78
2024/03/21 12:22:44;;;;;;;7.53;4.20;;;10.60;1.00;;;;;;5051108;28;20292;-78
2024/03/21 12:25:11;;;;;;;10.03;4.77;;;10.70;1.00;;;;;;5044930;28;20198;-78
2024/03/21 12:27:37;;;;;;;15.60;4.67;;;10.60;1.00;;;;;;5046728;28;20745;-78
2024/03/21 12:30:05;;;;;;;10.63;4.60;;;10.70;1.00;;;;;;5045155;28;20246;-78
2024/03/21 12:32:30;;;;;;;7.53;4.40;;;10.80;1.00;;;;;;5049890;28;20686;-78
2024/03/21 12:34:59;;;;;;;7.37;4.50;;;11.00;1.00;;;;;;5044495;28;20200;-78
2024/03/21 12:37:25;;;;;;;8.83;4.50;;;11.10;1.00;;;;;;5048341;28;20239;-78
2024/03/21 12:39:51;;;;;;;8.93;4.50;;;11.40;1.00;;;;;;5046493;28;20262;-78
2024/03/21 12:42:17;;;;;;;9.57;3.93;;;11.50;99.90;;;;;;5056974;28;20242;-78